sensor_id;sensor_type;location;lat;lon;timestamp;temperature;humidity
30069;DHT22;16894;49.456;10.644;2023-12-22T00:01:10;3.80;99.90
30069;DHT22;16894;49.456;10.644;2023-12-22T00:03:37;3.80;99.90
30069;DHT22;16894;49.456;10.644;2023-12-22T00:06:03;3.70;99.90
30069;DHT22;16894;49.456;10.644;2023-12-22T00:08:29;3.70;99.90
30069;DHT22;16894;49.456;10.644;2023-12-22T00:10:55;3.60;99.90
30069;DHT22;16894;49.456;10.644;2023-12-22T00:13:20;3.60;99.90
30069;DHT22;16894;49.456;10.644;2023-12-22T00:15:46;3.70;99.90
30069;DHT22;16894;49.456;10.644;2023-12-22T00:18:11;3.70;99.90
30069;DHT22;16894;49.456;10.644;2023-12-22T00:20:37;3.70;99.90
30069;DHT22;16894;49.456;10.644;2023-12-22T00:23:03;3.70;99.90
30069;DHT22;16894;49.456;10.644;2023-12-22T00:25:28;3.70;99.90
30069;DHT22;16894;49.456;10.644;2023-12-22T00:27:54;3.70;99.90
30069;DHT22;16894;49.456;10.644;2023-12-22T00:30:20;3.70;99.90
30069;DHT22;16894;49.456;10.644;2023-12-22T00:32:46;3.70;99.90
30069;DHT22;16894;49.456;10.644;2023-12-22T00:35:11;3.70;99.90
30069;DHT22;16894;49.456;10.644;2023-12-22T00:37:37;3.60;99.90
30069;DHT22;16894;49.456;10.644;2023-12-22T00:40:03;3.70;99.90
30069;DHT22;16894;49.456;10.644;2023-12-22T00:42:30;3.70;99.90
30069;DHT22;16894;49.456;10.644;2023-12-22T00:44:56;3.70;99.90
30069;DHT22;16894;49.456;10.644;2023-12-22T00:47:22;3.70;99.90
30069;DHT22;16894;49.456;10.644;2023-12-22T00:49:47;3.70;99.90
30069;DHT22;16894;49.456;10.644;2023-12-22T00:52:13;3.70;99.90
30069;DHT22;16894;49.456;10.644;2023-12-22T00:54:39;3.70;99.90
30069;DHT22;16894;49.456;10.644;2023-12-22T00:57:05;3.80;99.90
30069;DHT22;16894;49.456;10.644;2023-12-22T00:59:30;3.70;99.90
30069;DHT22;16894;49.456;10.644;2023-12-22T01:01:56;3.70;1.00
30069;DHT22;16894;49.456;10.644;2023-12-22T01:04:22;3.70;99.90
30069;DHT22;16894;49.456;10.644;2023-12-22T01:06:47;3.70;1.00
30069;DHT22;16894;49.456;10.644;2023-12-22T01:09:13;3.60;1.00
30069;DHT22;16894;49.456;10.644;2023-12-22T01:11:40;3.60;1.00
30069;DHT22;16894;49.456;10.644;2023-12-22T01:14:06;3.60;1.00
30069;DHT22;16894;49.456;10.644;2023-12-22T01:16:33;3.60;1.00
30069;DHT22;16894;49.456;10.644;2023-12-22T01:18:58;3.60;1.00
30069;DHT22;16894;49.456;10.644;2023-12-22T01:21:24;3.60;1.00
30069;DHT22;16894;49.456;10.644;2023-12-22T01:23:50;3.60;1.00
30069;DHT22;16894;49.456;10.644;2023-12-22T01:26:16;3.60;1.00
30069;DHT22;16894;49.456;10.644;2023-12-22T01:28:42;3.60;99.90
30069;DHT22;16894;49.456;10.644;2023-12-22T01:31:07;3.60;99.90
30069;DHT22;16894;49.456;10.644;2023-12-22T01:33:33;3.70;99.90
30069;DHT22;16894;49.456;10.644;2023-12-22T01:35:59;3.70;99.90
30069;DHT22;16894;49.456;10.644;2023-12-22T01:38:25;3.70;99.90
30069;DHT22;16894;49.456;10.644;2023-12-22T01:40:50;3.60;1.00
30069;DHT22;16894;49.456;10.644;2023-12-22T01:43:16;3.60;99.90
30069;DHT22;16894;49.456;10.644;2023-12-22T01:45:48;3.60;99.90
30069;DHT22;16894;49.456;10.644;2023-12-22T01:48:15;3.60;99.90
30069;DHT22;16894;49.456;10.644;2023-12-22T01:50:41;3.60;99.90
30069;DHT22;16894;49.456;10.644;2023-12-22T01:53:07;3.70;1.00
30069;DHT22;16894;49.456;10.644;2023-12-22T01:55:33;3.60;1.00
30069;DHT22;16894;49.456;10.644;2023-12-22T01:57:59;3.70;99.90
30069;DHT22;16894;49.456;10.644;2023-12-22T02:00:25;3.70;1.00
30069;DHT22;16894;49.456;10.644;2023-12-22T02:02:51;3.70;99.90
30069;DHT22;16894;49.456;10.644;2023-12-22T02:05:18;3.70;99.90
30069;DHT22;16894;49.456;10.644;2023-12-22T02:07:43;3.70;1.00
30069;DHT22;16894;49.456;10.644;2023-12-22T02:10:11;3.70;1.00
30069;DHT22;16894;49.456;10.644;2023-12-22T02:12:37;3.70;1.00
30069;DHT22;16894;49.456;10.644;2023-12-22T02:15:03;3.60;1.00
30069;DHT22;16894;49.456;10.644;2023-12-22T02:20:13;3.50;1.00
30069;DHT22;16894;49.456;10.644;2023-12-22T02:22:39;3.50;1.10
30069;DHT22;16894;49.456;10.644;2023-12-22T02:25:04;3.50;6.00
30069;DHT22;16894;49.456;10.644;2023-12-22T02:27:50;3.50;14.30
30069;DHT22;16894;49.456;10.644;2023-12-22T02:30:34;3.40;23.20
30069;DHT22;16894;49.456;10.644;2023-12-22T02:33:04;3.40;25.50
30069;DHT22;16894;49.456;10.644;2023-12-22T02:35:33;3.40;32.60
30069;DHT22;16894;49.456;10.644;2023-12-22T02:38:00;3.40;33.10
30069;DHT22;16894;49.456;10.644;2023-12-22T02:40:27;3.40;35.20
30069;DHT22;16894;49.456;10.644;2023-12-22T02:42:53;3.40;38.80
30069;DHT22;16894;49.456;10.644;2023-12-22T02:45:19;3.40;39.30
30069;DHT22;16894;49.456;10.644;2023-12-22T02:47:46;3.40;41.00
30069;DHT22;16894;49.456;10.644;2023-12-22T02:50:13;3.40;42.40
30069;DHT22;16894;49.456;10.644;2023-12-22T02:52:39;3.40;38.20
30069;DHT22;16894;49.456;10.644;2023-12-22T02:55:05;3.40;30.10
30069;DHT22;16894;49.456;10.644;2023-12-22T02:57:31;3.30;25.30
30069;DHT22;16894;49.456;10.644;2023-12-22T02:59:57;3.30;27.20
30069;DHT22;16894;49.456;10.644;2023-12-22T03:02:23;3.30;28.30
30069;DHT22;16894;49.456;10.644;2023-12-22T03:04:49;3.20;23.30
30069;DHT22;16894;49.456;10.644;2023-12-22T03:07:15;3.10;27.00
30069;DHT22;16894;49.456;10.644;2023-12-22T03:09:42;3.00;26.40
30069;DHT22;16894;49.456;10.644;2023-12-22T03:12:08;3.00;34.70
30069;DHT22;16894;49.456;10.644;2023-12-22T03:14:34;3.10;35.80
30069;DHT22;16894;49.456;10.644;2023-12-22T03:17:01;3.00;32.20
30069;DHT22;16894;49.456;10.644;2023-12-22T03:19:27;3.00;28.90
30069;DHT22;16894;49.456;10.644;2023-12-22T03:21:53;3.00;32.50
30069;DHT22;16894;49.456;10.644;2023-12-22T03:24:19;3.00;14.80
30069;DHT22;16894;49.456;10.644;2023-12-22T03:26:45;3.10;11.70
30069;DHT22;16894;49.456;10.644;2023-12-22T03:29:11;3.00;10.90
30069;DHT22;16894;49.456;10.644;2023-12-22T03:31:37;3.00;3.40
30069;DHT22;16894;49.456;10.644;2023-12-22T03:34:03;3.00;1.30
30069;DHT22;16894;49.456;10.644;2023-12-22T03:36:28;3.00;10.00
30069;DHT22;16894;49.456;10.644;2023-12-22T03:38:54;3.00;1.00
30069;DHT22;16894;49.456;10.644;2023-12-22T03:41:20;3.00;1.00
30069;DHT22;16894;49.456;10.644;2023-12-22T03:43:46;3.00;1.40
30069;DHT22;16894;49.456;10.644;2023-12-22T03:46:11;3.00;14.60
30069;DHT22;16894;49.456;10.644;2023-12-22T03:48:37;2.90;1.00
30069;DHT22;16894;49.456;10.644;2023-12-22T03:51:03;2.90;1.00
30069;DHT22;16894;49.456;10.644;2023-12-22T03:53:28;2.90;1.00
30069;DHT22;16894;49.456;10.644;2023-12-22T03:55:55;2.90;1.00
30069;DHT22;16894;49.456;10.644;2023-12-22T03:58:20;2.90;1.00
30069;DHT22;16894;49.456;10.644;2023-12-22T04:00:46;2.90;1.00
30069;DHT22;16894;49.456;10.644;2023-12-22T04:03:13;2.90;1.00
30069;DHT22;16894;49.456;10.644;2023-12-22T04:05:38;2.90;1.00
30069;DHT22;16894;49.456;10.644;2023-12-22T04:08:05;2.90;3.10
30069;DHT22;16894;49.456;10.644;2023-12-22T04:10:31;2.90;8.40
30069;DHT22;16894;49.456;10.644;2023-12-22T04:12:56;2.80;10.00
30069;DHT22;16894;49.456;10.644;2023-12-22T04:15:22;2.70;1.00
30069;DHT22;16894;49.456;10.644;2023-12-22T04:17:48;2.60;10.50
30069;DHT22;16894;49.456;10.644;2023-12-22T04:20:15;2.50;37.20
30069;DHT22;16894;49.456;10.644;2023-12-22T04:22:41;2.40;41.00
30069;DHT22;16894;49.456;10.644;2023-12-22T04:25:07;2.50;46.10
30069;DHT22;16894;49.456;10.644;2023-12-22T04:27:34;2.50;43.10
30069;DHT22;16894;49.456;10.644;2023-12-22T04:30:00;2.50;45.40
30069;DHT22;16894;49.456;10.644;2023-12-22T04:32:25;2.60;44.40
30069;DHT22;16894;49.456;10.644;2023-12-22T04:34:51;2.60;43.50
30069;DHT22;16894;49.456;10.644;2023-12-22T04:37:17;2.60;35.00
30069;DHT22;16894;49.456;10.644;2023-12-22T04:39:42;2.70;34.90
30069;DHT22;16894;49.456;10.644;2023-12-22T04:42:08;2.70;32.70
30069;DHT22;16894;49.456;10.644;2023-12-22T04:44:34;2.80;29.70
30069;DHT22;16894;49.456;10.644;2023-12-22T04:47:00;2.80;27.40
30069;DHT22;16894;49.456;10.644;2023-12-22T04:49:25;2.80;33.10
30069;DHT22;16894;49.456;10.644;2023-12-22T04:51:52;2.80;31.00
30069;DHT22;16894;49.456;10.644;2023-12-22T04:54:18;2.90;36.90
30069;DHT22;16894;49.456;10.644;2023-12-22T04:56:43;2.90;37.00
30069;DHT22;16894;49.456;10.644;2023-12-22T04:59:10;2.80;38.30
30069;DHT22;16894;49.456;10.644;2023-12-22T05:01:37;2.90;39.50
30069;DHT22;16894;49.456;10.644;2023-12-22T05:04:02;2.80;37.70
30069;DHT22;16894;49.456;10.644;2023-12-22T05:06:28;2.80;40.80
30069;DHT22;16894;49.456;10.644;2023-12-22T05:08:57;2.80;45.70
30069;DHT22;16894;49.456;10.644;2023-12-22T05:11:22;2.80;47.20
30069;DHT22;16894;49.456;10.644;2023-12-22T05:13:48;2.80;49.80
30069;DHT22;16894;49.456;10.644;2023-12-22T05:16:14;2.90;51.40
30069;DHT22;16894;49.456;10.644;2023-12-22T05:18:40;2.90;47.50
30069;DHT22;16894;49.456;10.644;2023-12-22T05:21:06;2.90;50.80
30069;DHT22;16894;49.456;10.644;2023-12-22T05:23:32;2.90;47.10
30069;DHT22;16894;49.456;10.644;2023-12-22T05:25:58;2.80;50.50
30069;DHT22;16894;49.456;10.644;2023-12-22T05:28:23;2.80;52.90
30069;DHT22;16894;49.456;10.644;2023-12-22T05:30:49;2.80;49.40
30069;DHT22;16894;49.456;10.644;2023-12-22T05:33:15;2.80;49.40
30069;DHT22;16894;49.456;10.644;2023-12-22T05:35:41;2.80;49.00
30069;DHT22;16894;49.456;10.644;2023-12-22T05:38:07;2.80;51.10
30069;DHT22;16894;49.456;10.644;2023-12-22T05:40:33;2.80;50.80
30069;DHT22;16894;49.456;10.644;2023-12-22T05:42:59;2.80;52.50
30069;DHT22;16894;49.456;10.644;2023-12-22T05:45:25;2.70;53.30
30069;DHT22;16894;49.456;10.644;2023-12-22T05:47:51;2.70;53.00
30069;DHT22;16894;49.456;10.644;2023-12-22T05:50:17;2.70;54.40
30069;DHT22;16894;49.456;10.644;2023-12-22T05:52:43;2.80;57.00
30069;DHT22;16894;49.456;10.644;2023-12-22T05:55:11;2.80;56.20
30069;DHT22;16894;49.456;10.644;2023-12-22T05:57:37;2.90;57.20
30069;DHT22;16894;49.456;10.644;2023-12-22T06:00:04;2.90;55.20
30069;DHT22;16894;49.456;10.644;2023-12-22T06:02:33;3.00;53.80
30069;DHT22;16894;49.456;10.644;2023-12-22T06:04:59;3.00;55.60
30069;DHT22;16894;49.456;10.644;2023-12-22T06:07:25;3.00;57.20
30069;DHT22;16894;49.456;10.644;2023-12-22T06:09:50;3.00;57.80
30069;DHT22;16894;49.456;10.644;2023-12-22T06:12:16;3.10;58.50
30069;DHT22;16894;49.456;10.644;2023-12-22T06:14:41;3.00;57.20
30069;DHT22;16894;49.456;10.644;2023-12-22T06:17:07;3.00;59.50
30069;DHT22;16894;49.456;10.644;2023-12-22T06:19:34;3.10;63.30
30069;DHT22;16894;49.456;10.644;2023-12-22T06:22:00;3.10;64.30
30069;DHT22;16894;49.456;10.644;2023-12-22T06:24:26;3.10;61.50
30069;DHT22;16894;49.456;10.644;2023-12-22T06:26:51;3.20;58.80
30069;DHT22;16894;49.456;10.644;2023-12-22T06:29:17;3.20;56.90
30069;DHT22;16894;49.456;10.644;2023-12-22T06:31:43;3.30;51.40
30069;DHT22;16894;49.456;10.644;2023-12-22T06:34:09;3.30;46.50
30069;DHT22;16894;49.456;10.644;2023-12-22T06:36:35;3.30;44.70
30069;DHT22;16894;49.456;10.644;2023-12-22T06:39:00;3.40;38.90
30069;DHT22;16894;49.456;10.644;2023-12-22T06:41:30;3.40;34.30
30069;DHT22;16894;49.456;10.644;2023-12-22T06:43:57;3.40;34.00
30069;DHT22;16894;49.456;10.644;2023-12-22T06:46:25;3.40;39.20
30069;DHT22;16894;49.456;10.644;2023-12-22T06:48:51;3.50;41.60
30069;DHT22;16894;49.456;10.644;2023-12-22T06:51:22;3.50;43.80
30069;DHT22;16894;49.456;10.644;2023-12-22T06:53:48;3.50;45.60
30069;DHT22;16894;49.456;10.644;2023-12-22T06:56:34;3.50;48.80
30069;DHT22;16894;49.456;10.644;2023-12-22T06:59:00;3.60;49.80
30069;DHT22;16894;49.456;10.644;2023-12-22T07:03:52;3.60;48.60
30069;DHT22;16894;49.456;10.644;2023-12-22T07:06:19;3.60;43.90
30069;DHT22;16894;49.456;10.644;2023-12-22T07:11:22;3.70;45.80
30069;DHT22;16894;49.456;10.644;2023-12-22T07:13:48;3.70;43.30
30069;DHT22;16894;49.456;10.644;2023-12-22T07:16:15;3.70;43.50
30069;DHT22;16894;49.456;10.644;2023-12-22T07:18:41;3.70;38.80
30069;DHT22;16894;49.456;10.644;2023-12-22T07:21:07;3.70;30.70
30069;DHT22;16894;49.456;10.644;2023-12-22T07:23:33;3.70;31.60
30069;DHT22;16894;49.456;10.644;2023-12-22T07:25:59;3.70;24.40
30069;DHT22;16894;49.456;10.644;2023-12-22T07:28:24;3.70;30.80
30069;DHT22;16894;49.456;10.644;2023-12-22T07:30:50;3.70;33.80
30069;DHT22;16894;49.456;10.644;2023-12-22T07:33:16;3.70;42.90
30069;DHT22;16894;49.456;10.644;2023-12-22T07:35:41;3.80;46.00
30069;DHT22;16894;49.456;10.644;2023-12-22T07:38:07;3.80;47.50
30069;DHT22;16894;49.456;10.644;2023-12-22T07:40:34;3.80;46.40
30069;DHT22;16894;49.456;10.644;2023-12-22T07:42:59;3.80;47.40
30069;DHT22;16894;49.456;10.644;2023-12-22T07:45:25;3.90;46.60
30069;DHT22;16894;49.456;10.644;2023-12-22T07:47:51;3.90;43.70
30069;DHT22;16894;49.456;10.644;2023-12-22T07:50:17;4.10;23.90
30069;DHT22;16894;49.456;10.644;2023-12-22T07:52:43;4.10;20.90
30069;DHT22;16894;49.456;10.644;2023-12-22T07:55:09;4.10;20.70
30069;DHT22;16894;49.456;10.644;2023-12-22T07:57:36;4.20;13.90
30069;DHT22;16894;49.456;10.644;2023-12-22T08:00:02;4.20;7.10
30069;DHT22;16894;49.456;10.644;2023-12-22T08:02:28;4.30;1.00
30069;DHT22;16894;49.456;10.644;2023-12-22T08:04:54;4.30;1.00
30069;DHT22;16894;49.456;10.644;2023-12-22T08:07:20;4.30;1.00
30069;DHT22;16894;49.456;10.644;2023-12-22T08:09:46;4.30;1.00
30069;DHT22;16894;49.456;10.644;2023-12-22T08:12:12;4.40;1.00
30069;DHT22;16894;49.456;10.644;2023-12-22T08:14:37;4.40;1.00
30069;DHT22;16894;49.456;10.644;2023-12-22T08:17:03;4.40;1.00
30069;DHT22;16894;49.456;10.644;2023-12-22T08:19:29;4.40;1.00
30069;DHT22;16894;49.456;10.644;2023-12-22T08:21:55;4.40;1.00
30069;DHT22;16894;49.456;10.644;2023-12-22T08:24:21;4.40;1.00
30069;DHT22;16894;49.456;10.644;2023-12-22T08:26:47;4.40;1.00
30069;DHT22;16894;49.456;10.644;2023-12-22T08:29:13;4.40;1.00
30069;DHT22;16894;49.456;10.644;2023-12-22T08:31:39;4.50;1.00
30069;DHT22;16894;49.456;10.644;2023-12-22T08:34:05;4.50;1.00
30069;DHT22;16894;49.456;10.644;2023-12-22T08:36:31;4.70;1.00
30069;DHT22;16894;49.456;10.644;2023-12-22T08:38:57;4.70;1.00
30069;DHT22;16894;49.456;10.644;2023-12-22T08:41:23;4.70;1.00
30069;DHT22;16894;49.456;10.644;2023-12-22T08:43:48;4.80;1.00
30069;DHT22;16894;49.456;10.644;2023-12-22T08:46:14;4.80;99.90
30069;DHT22;16894;49.456;10.644;2023-12-22T08:48:40;4.80;99.90
30069;DHT22;16894;49.456;10.644;2023-12-22T08:51:06;4.80;99.90
30069;DHT22;16894;49.456;10.644;2023-12-22T08:53:33;4.80;1.00
30069;DHT22;16894;49.456;10.644;2023-12-22T08:56:02;4.80;1.00
30069;DHT22;16894;49.456;10.644;2023-12-22T08:58:28;4.80;99.90
30069;DHT22;16894;49.456;10.644;2023-12-22T09:00:55;4.90;99.90
30069;DHT22;16894;49.456;10.644;2023-12-22T09:03:20;5.00;99.90
30069;DHT22;16894;49.456;10.644;2023-12-22T09:05:46;5.10;99.90
30069;DHT22;16894;49.456;10.644;2023-12-22T09:08:13;5.20;99.90
30069;DHT22;16894;49.456;10.644;2023-12-22T09:10:38;5.20;99.90
30069;DHT22;16894;49.456;10.644;2023-12-22T09:13:04;5.30;99.90
30069;DHT22;16894;49.456;10.644;2023-12-22T09:15:30;5.30;99.90
30069;DHT22;16894;49.456;10.644;2023-12-22T09:17:56;5.40;99.90
30069;DHT22;16894;49.456;10.644;2023-12-22T09:20:22;5.40;99.90
30069;DHT22;16894;49.456;10.644;2023-12-22T09:22:48;5.40;99.90
30069;DHT22;16894;49.456;10.644;2023-12-22T09:25:13;5.40;99.90
30069;DHT22;16894;49.456;10.644;2023-12-22T09:27:39;5.40;99.90
30069;DHT22;16894;49.456;10.644;2023-12-22T09:30:05;5.40;99.90
30069;DHT22;16894;49.456;10.644;2023-12-22T09:32:33;5.20;1.00
30069;DHT22;16894;49.456;10.644;2023-12-22T09:35:00;5.10;1.00
30069;DHT22;16894;49.456;10.644;2023-12-22T09:37:26;5.00;1.00
30069;DHT22;16894;49.456;10.644;2023-12-22T09:39:52;4.90;10.90
30069;DHT22;16894;49.456;10.644;2023-12-22T09:42:19;4.90;10.80
30069;DHT22;16894;49.456;10.644;2023-12-22T09:44:49;4.90;25.60
30069;DHT22;16894;49.456;10.644;2023-12-22T09:47:16;4.90;26.00
30069;DHT22;16894;49.456;10.644;2023-12-22T09:49:43;4.80;36.60
30069;DHT22;16894;49.456;10.644;2023-12-22T09:52:11;4.90;32.50
30069;DHT22;16894;49.456;10.644;2023-12-22T09:54:38;4.90;30.00
30069;DHT22;16894;49.456;10.644;2023-12-22T09:57:05;4.90;31.30
30069;DHT22;16894;49.456;10.644;2023-12-22T09:59:32;5.10;25.60
30069;DHT22;16894;49.456;10.644;2023-12-22T10:02:00;5.10;14.10
30069;DHT22;16894;49.456;10.644;2023-12-22T10:04:26;5.10;1.00
30069;DHT22;16894;49.456;10.644;2023-12-22T10:06:53;5.20;1.00
30069;DHT22;16894;49.456;10.644;2023-12-22T10:09:21;5.30;1.00
30069;DHT22;16894;49.456;10.644;2023-12-22T10:11:49;5.30;1.00
30069;DHT22;16894;49.456;10.644;2023-12-22T10:14:17;5.40;1.00
30069;DHT22;16894;49.456;10.644;2023-12-22T10:16:54;5.40;1.00
30069;DHT22;16894;49.456;10.644;2023-12-22T10:19:22;5.50;1.00
30069;DHT22;16894;49.456;10.644;2023-12-22T10:21:48;5.40;1.00
30069;DHT22;16894;49.456;10.644;2023-12-22T10:27:02;5.40;1.00
30069;DHT22;16894;49.456;10.644;2023-12-22T10:29:29;5.40;1.00
30069;DHT22;16894;49.456;10.644;2023-12-22T10:31:55;5.30;1.00
30069;DHT22;16894;49.456;10.644;2023-12-22T10:34:20;5.30;1.00
30069;DHT22;16894;49.456;10.644;2023-12-22T10:36:46;5.30;1.00
30069;DHT22;16894;49.456;10.644;2023-12-22T10:39:12;5.20;1.00
30069;DHT22;16894;49.456;10.644;2023-12-22T10:41:38;5.20;1.00
30069;DHT22;16894;49.456;10.644;2023-12-22T10:44:04;5.20;1.00
30069;DHT22;16894;49.456;10.644;2023-12-22T10:46:34;5.10;1.00
30069;DHT22;16894;49.456;10.644;2023-12-22T10:49:02;5.20;1.00
30069;DHT22;16894;49.456;10.644;2023-12-22T10:51:28;5.30;1.00
30069;DHT22;16894;49.456;10.644;2023-12-22T10:53:58;5.30;1.00
30069;DHT22;16894;49.456;10.644;2023-12-22T10:56:24;5.20;1.00
30069;DHT22;16894;49.456;10.644;2023-12-22T10:58:51;5.00;2.70
30069;DHT22;16894;49.456;10.644;2023-12-22T11:01:18;5.00;6.70
30069;DHT22;16894;49.456;10.644;2023-12-22T11:03:50;4.90;13.60
30069;DHT22;16894;49.456;10.644;2023-12-22T11:06:17;4.80;15.50
30069;DHT22;16894;49.456;10.644;2023-12-22T11:08:47;4.90;25.20
30069;DHT22;16894;49.456;10.644;2023-12-22T11:11:24;4.90;35.10
30069;DHT22;16894;49.456;10.644;2023-12-22T11:13:53;4.80;38.00
30069;DHT22;16894;49.456;10.644;2023-12-22T11:16:21;4.90;39.80
30069;DHT22;16894;49.456;10.644;2023-12-22T11:18:49;4.90;39.50
30069;DHT22;16894;49.456;10.644;2023-12-22T11:21:16;4.90;43.80
30069;DHT22;16894;49.456;10.644;2023-12-22T11:23:44;4.90;47.80
30069;DHT22;16894;49.456;10.644;2023-12-22T11:26:11;4.90;49.00
30069;DHT22;16894;49.456;10.644;2023-12-22T11:28:40;5.00;47.80
30069;DHT22;16894;49.456;10.644;2023-12-22T11:31:10;5.10;35.20
30069;DHT22;16894;49.456;10.644;2023-12-22T11:33:36;5.20;43.30
30069;DHT22;16894;49.456;10.644;2023-12-22T11:36:04;5.30;44.80
30069;DHT22;16894;49.456;10.644;2023-12-22T11:38:30;5.40;39.80
30069;DHT22;16894;49.456;10.644;2023-12-22T11:40:58;5.40;25.70
30069;DHT22;16894;49.456;10.644;2023-12-22T11:43:25;5.50;23.60
30069;DHT22;16894;49.456;10.644;2023-12-22T11:45:51;5.50;12.50
30069;DHT22;16894;49.456;10.644;2023-12-22T11:48:17;5.60;18.60
30069;DHT22;16894;49.456;10.644;2023-12-22T11:50:43;5.70;1.20
30069;DHT22;16894;49.456;10.644;2023-12-22T11:53:25;5.80;1.00
30069;DHT22;16894;49.456;10.644;2023-12-22T11:56:03;5.80;1.00
30069;DHT22;16894;49.456;10.644;2023-12-22T11:58:43;5.80;1.00
30069;DHT22;16894;49.456;10.644;2023-12-22T12:01:12;5.90;1.00
30069;DHT22;16894;49.456;10.644;2023-12-22T12:08:39;6.00;1.00
30069;DHT22;16894;49.456;10.644;2023-12-22T12:11:05;6.00;1.00
30069;DHT22;16894;49.456;10.644;2023-12-22T12:13:33;6.00;1.00
30069;DHT22;16894;49.456;10.644;2023-12-22T12:16:03;6.00;1.00
30069;DHT22;16894;49.456;10.644;2023-12-22T12:18:32;6.10;1.00
30069;DHT22;16894;49.456;10.644;2023-12-22T12:21:00;6.10;1.00
30069;DHT22;16894;49.456;10.644;2023-12-22T12:23:27;6.10;1.00
30069;DHT22;16894;49.456;10.644;2023-12-22T12:25:56;6.20;1.00
30069;DHT22;16894;49.456;10.644;2023-12-22T12:28:34;6.20;1.00
30069;DHT22;16894;49.456;10.644;2023-12-22T12:31:02;6.20;1.00
30069;DHT22;16894;49.456;10.644;2023-12-22T12:33:29;6.30;1.00
30069;DHT22;16894;49.456;10.644;2023-12-22T12:36:00;6.30;1.00
30069;DHT22;16894;49.456;10.644;2023-12-22T12:41:09;6.30;1.00
30069;DHT22;16894;49.456;10.644;2023-12-22T12:43:41;6.30;1.00
30069;DHT22;16894;49.456;10.644;2023-12-22T12:46:07;6.40;1.00
30069;DHT22;16894;49.456;10.644;2023-12-22T12:48:33;6.40;1.00
30069;DHT22;16894;49.456;10.644;2023-12-22T12:51:04;6.40;1.00
30069;DHT22;16894;49.456;10.644;2023-12-22T12:53:31;6.50;1.00
30069;DHT22;16894;49.456;10.644;2023-12-22T12:55:59;6.50;99.90
30069;DHT22;16894;49.456;10.644;2023-12-22T12:58:31;6.50;1.00
30069;DHT22;16894;49.456;10.644;2023-12-22T13:01:10;6.50;99.90
30069;DHT22;16894;49.456;10.644;2023-12-22T13:03:54;6.50;1.00
30069;DHT22;16894;49.456;10.644;2023-12-22T13:06:21;6.50;1.00
30069;DHT22;16894;49.456;10.644;2023-12-22T13:08:51;6.60;1.00
30069;DHT22;16894;49.456;10.644;2023-12-22T13:11:21;6.50;1.00
30069;DHT22;16894;49.456;10.644;2023-12-22T13:13:48;6.60;1.00
30069;DHT22;16894;49.456;10.644;2023-12-22T13:16:17;6.60;1.00
30069;DHT22;16894;49.456;10.644;2023-12-22T13:18:43;6.50;1.00
30069;DHT22;16894;49.456;10.644;2023-12-22T13:21:08;6.60;1.00
30069;DHT22;16894;49.456;10.644;2023-12-22T13:23:34;6.50;1.00
30069;DHT22;16894;49.456;10.644;2023-12-22T13:26:00;6.50;1.00
30069;DHT22;16894;49.456;10.644;2023-12-22T13:28:26;6.50;1.00
30069;DHT22;16894;49.456;10.644;2023-12-22T13:30:53;6.50;1.00
30069;DHT22;16894;49.456;10.644;2023-12-22T13:33:19;6.40;1.00
30069;DHT22;16894;49.456;10.644;2023-12-22T13:35:44;6.40;1.00
30069;DHT22;16894;49.456;10.644;2023-12-22T13:38:12;6.30;1.00
30069;DHT22;16894;49.456;10.644;2023-12-22T13:40:38;6.30;1.00
30069;DHT22;16894;49.456;10.644;2023-12-22T13:43:05;6.30;1.00
30069;DHT22;16894;49.456;10.644;2023-12-22T13:45:32;6.30;14.90
30069;DHT22;16894;49.456;10.644;2023-12-22T13:47:58;6.30;13.50
30069;DHT22;16894;49.456;10.644;2023-12-22T13:50:24;6.20;23.90
30069;DHT22;16894;49.456;10.644;2023-12-22T13:52:50;6.20;33.80
30069;DHT22;16894;49.456;10.644;2023-12-22T13:55:18;6.20;34.40
30069;DHT22;16894;49.456;10.644;2023-12-22T13:57:44;6.20;31.60
30069;DHT22;16894;49.456;10.644;2023-12-22T14:02:42;6.30;50.50
30069;DHT22;16894;49.456;10.644;2023-12-22T14:05:08;6.40;46.00
30069;DHT22;16894;49.456;10.644;2023-12-22T14:07:34;6.50;46.30
30069;DHT22;16894;49.456;10.644;2023-12-22T14:10:09;6.50;39.20
30069;DHT22;16894;49.456;10.644;2023-12-22T14:12:39;6.60;30.10
30069;DHT22;16894;49.456;10.644;2023-12-22T14:15:11;6.60;30.00
30069;DHT22;16894;49.456;10.644;2023-12-22T14:17:37;6.70;22.90
30069;DHT22;16894;49.456;10.644;2023-12-22T14:20:04;6.60;24.00
30069;DHT22;16894;49.456;10.644;2023-12-22T14:22:38;6.70;27.50
30069;DHT22;16894;49.456;10.644;2023-12-22T14:25:04;6.70;26.80
30069;DHT22;16894;49.456;10.644;2023-12-22T14:27:30;6.70;27.10
30069;DHT22;16894;49.456;10.644;2023-12-22T14:29:56;6.70;29.00
30069;DHT22;16894;49.456;10.644;2023-12-22T14:32:22;6.80;30.20
30069;DHT22;16894;49.456;10.644;2023-12-22T14:34:48;6.80;23.00
30069;DHT22;16894;49.456;10.644;2023-12-22T14:37:14;6.80;29.30
30069;DHT22;16894;49.456;10.644;2023-12-22T14:39:42;6.80;27.50
30069;DHT22;16894;49.456;10.644;2023-12-22T14:42:08;6.80;29.40
30069;DHT22;16894;49.456;10.644;2023-12-22T14:44:35;6.80;28.20
30069;DHT22;16894;49.456;10.644;2023-12-22T14:47:01;6.80;26.10
30069;DHT22;16894;49.456;10.644;2023-12-22T14:49:27;6.80;27.40
30069;DHT22;16894;49.456;10.644;2023-12-22T14:51:52;6.80;29.50
30069;DHT22;16894;49.456;10.644;2023-12-22T14:54:20;6.80;39.10
30069;DHT22;16894;49.456;10.644;2023-12-22T14:56:48;6.80;46.10
30069;DHT22;16894;49.456;10.644;2023-12-22T14:59:15;6.80;40.10
30069;DHT22;16894;49.456;10.644;2023-12-22T15:01:41;6.70;42.90
30069;DHT22;16894;49.456;10.644;2023-12-22T15:04:07;6.70;45.60
30069;DHT22;16894;49.456;10.644;2023-12-22T15:06:36;6.70;48.70
30069;DHT22;16894;49.456;10.644;2023-12-22T15:09:02;6.70;53.80
30069;DHT22;16894;49.456;10.644;2023-12-22T15:11:29;6.70;51.30
30069;DHT22;16894;49.456;10.644;2023-12-22T15:13:54;6.80;51.40
30069;DHT22;16894;49.456;10.644;2023-12-22T15:16:20;6.70;49.10
30069;DHT22;16894;49.456;10.644;2023-12-22T15:18:46;6.70;46.20
30069;DHT22;16894;49.456;10.644;2023-12-22T15:21:22;6.70;34.50
30069;DHT22;16894;49.456;10.644;2023-12-22T15:23:48;6.80;27.20
30069;DHT22;16894;49.456;10.644;2023-12-22T15:26:23;6.80;25.20
30069;DHT22;16894;49.456;10.644;2023-12-22T15:28:53;6.80;25.30
30069;DHT22;16894;49.456;10.644;2023-12-22T15:31:19;6.80;25.10
30069;DHT22;16894;49.456;10.644;2023-12-22T15:33:45;6.90;14.20
30069;DHT22;16894;49.456;10.644;2023-12-22T15:36:16;6.90;16.60
30069;DHT22;16894;49.456;10.644;2023-12-22T15:38:43;6.90;13.80
30069;DHT22;16894;49.456;10.644;2023-12-22T15:41:09;6.90;10.10
30069;DHT22;16894;49.456;10.644;2023-12-22T15:43:35;6.80;13.10
30069;DHT22;16894;49.456;10.644;2023-12-22T15:46:08;6.80;9.20
30069;DHT22;16894;49.456;10.644;2023-12-22T15:48:35;6.80;7.20
30069;DHT22;16894;49.456;10.644;2023-12-22T15:51:05;6.90;8.40
30069;DHT22;16894;49.456;10.644;2023-12-22T15:53:31;6.90;1.00